createdAt,value
2023-05-07T00:02:15.535Z,22.83
2023-05-07T00:04:42.456Z,22.23
2023-05-07T00:07:09.289Z,24.23
2023-05-07T00:09:37.409Z,23.57
2023-05-07T00:12:04.358Z,23.60
2023-05-07T00:14:32.081Z,26.20
2023-05-07T00:16:59.030Z,25.10
2023-05-07T00:19:25.947Z,26.93
2023-05-07T00:21:54.702Z,26.30
2023-05-07T00:24:21.582Z,27.20
2023-05-07T00:26:48.563Z,26.13
2023-05-07T00:29:15.416Z,26.23
2023-05-07T00:31:42.380Z,25.50
2023-05-07T00:34:09.214Z,26.57
2023-05-07T00:36:36.132Z,26.47
2023-05-07T00:39:04.723Z,27.43
2023-05-07T00:41:34.463Z,26.93
2023-05-07T00:44:02.771Z,27.43
2023-05-07T00:46:31.712Z,28.37
2023-05-07T00:48:59.089Z,28.00
2023-05-07T00:51:28.436Z,26.80
2023-05-07T00:53:55.424Z,27.67
2023-05-07T00:56:23.391Z,25.13
2023-05-07T00:58:50.759Z,26.07
2023-05-07T01:01:17.844Z,24.73
2023-05-07T01:03:44.912Z,26.50
2023-05-07T01:06:14.320Z,25.90
2023-05-07T01:08:43.077Z,25.67
2023-05-07T01:11:10.944Z,25.70
2023-05-07T01:13:39.430Z,25.53
2023-05-07T01:16:06.956Z,25.70
2023-05-07T01:18:33.787Z,26.30
2023-05-07T01:21:02.386Z,25.40
2023-05-07T01:23:29.802Z,25.83
2023-05-07T01:25:56.730Z,23.17
2023-05-07T01:28:23.793Z,21.77
2023-05-07T01:31:05.254Z,23.27
2023-05-07T01:33:36.201Z,21.90
2023-05-07T01:36:07.429Z,21.00
2023-05-07T01:38:35.006Z,21.53
2023-05-07T01:41:02.456Z,23.57
2023-05-07T01:43:31.555Z,22.50
2023-05-07T01:45:59.131Z,23.07
2023-05-07T01:48:26.836Z,23.63
2023-05-07T01:50:54.174Z,22.37
2023-05-07T01:53:21.090Z,22.63
2023-05-07T01:55:47.928Z,22.17
2023-05-07T01:58:14.775Z,20.83
2023-05-07T02:00:42.125Z,23.07
2023-05-07T02:03:09.117Z,23.67
2023-05-07T02:05:36.254Z,21.47
2023-05-07T02:08:03.261Z,22.03
2023-05-07T02:10:30.152Z,22.80
2023-05-07T02:12:57.051Z,25.23
2023-05-07T02:15:23.852Z,24.50
2023-05-07T02:20:47.691Z,25.53
2023-05-07T02:23:14.522Z,25.23
2023-05-07T02:25:41.595Z,24.57
2023-05-07T02:28:08.489Z,24.07
2023-05-07T02:30:35.428Z,23.67
2023-05-07T02:33:02.361Z,24.33
2023-05-07T02:35:29.235Z,22.07
2023-05-07T02:37:56.113Z,21.90
2023-05-07T02:40:23.066Z,23.10
2023-05-07T02:42:49.896Z,20.00
2023-05-07T02:45:16.852Z,21.00
2023-05-07T02:47:43.721Z,20.07
2023-05-07T02:50:11.175Z,21.33
2023-05-07T02:52:38.295Z,19.80
2023-05-07T02:55:05.715Z,18.97
2023-05-07T02:57:32.627Z,21.20
2023-05-07T03:00:00.285Z,18.40
2023-05-07T03:02:27.138Z,18.10
2023-05-07T03:04:54.033Z,18.93
2023-05-07T03:07:21.045Z,17.53
2023-05-07T03:09:47.938Z,18.10
2023-05-07T03:12:14.792Z,18.03
2023-05-07T03:14:41.636Z,21.07
2023-05-07T03:17:08.517Z,19.00
2023-05-07T03:19:35.418Z,20.27
2023-05-07T03:22:02.326Z,19.10
2023-05-07T03:24:29.142Z,19.33
2023-05-07T03:26:56.080Z,20.03
2023-05-07T03:29:22.981Z,19.97
2023-05-07T03:31:49.971Z,18.80
2023-05-07T03:34:18.141Z,18.13
2023-05-07T03:36:45.070Z,17.90
2023-05-07T03:39:11.899Z,19.23
2023-05-07T03:41:38.738Z,16.77
2023-05-07T03:44:05.589Z,17.47
2023-05-07T03:46:34.045Z,17.20
2023-05-07T03:49:01.258Z,18.23
2023-05-07T03:51:28.232Z,17.90
2023-05-07T03:53:55.155Z,17.77
2023-05-07T03:56:22.185Z,17.63
2023-05-07T03:58:49.004Z,19.30
2023-05-07T04:01:15.930Z,18.00
2023-05-07T04:03:42.797Z,18.60
2023-05-07T04:06:09.764Z,16.93
2023-05-07T04:08:36.692Z,16.40
2023-05-07T04:11:03.618Z,16.70
2023-05-07T04:13:31.589Z,16.27
2023-05-07T04:15:58.389Z,16.93
2023-05-07T04:18:25.399Z,16.77
2023-05-07T04:20:52.468Z,17.03
2023-05-07T04:23:19.355Z,16.23
2023-05-07T04:25:46.436Z,17.63
2023-05-07T04:28:13.679Z,17.23
2023-05-07T04:30:40.850Z,16.80
2023-05-07T04:33:08.131Z,16.90
2023-05-07T04:35:35.079Z,17.70
2023-05-07T04:38:02.764Z,16.83
2023-05-07T04:40:29.666Z,16.50
2023-05-07T04:42:56.532Z,16.93
2023-05-07T04:45:23.383Z,17.30
2023-05-07T04:47:50.246Z,15.53
2023-05-07T04:50:17.262Z,14.50
2023-05-07T04:52:44.224Z,15.63
2023-05-07T04:55:11.207Z,14.60
2023-05-07T04:57:40.617Z,13.50
2023-05-07T05:00:10.427Z,12.60
2023-05-07T05:02:37.520Z,12.20
2023-05-07T05:05:04.773Z,12.83
2023-05-07T05:07:31.667Z,11.20
2023-05-07T05:09:58.929Z,11.70
2023-05-07T05:12:25.976Z,12.03
2023-05-07T05:14:53.204Z,11.70
2023-05-07T05:17:20.103Z,10.73
2023-05-07T05:19:46.998Z,11.43
2023-05-07T05:22:13.857Z,11.10
2023-05-07T05:24:40.851Z,10.40
2023-05-07T05:27:07.694Z,9.77
2023-05-07T05:29:34.572Z,9.73
2023-05-07T05:32:01.428Z,9.33
2023-05-07T05:34:28.714Z,9.00
2023-05-07T05:36:55.652Z,8.37
2023-05-07T05:39:24.328Z,7.67
2023-05-07T05:41:51.177Z,6.57
2023-05-07T05:44:17.987Z,7.60
2023-05-07T05:46:44.993Z,6.93
2023-05-07T05:49:11.979Z,6.37
2023-05-07T05:51:38.799Z,6.50
2023-05-07T05:54:05.866Z,7.03
2023-05-07T05:56:32.732Z,7.00
2023-05-07T05:58:59.669Z,6.93
2023-05-07T06:01:26.678Z,6.90
2023-05-07T06:03:53.560Z,7.27
2023-05-07T06:06:20.406Z,7.60
2023-05-07T06:08:47.274Z,6.93
2023-05-07T06:11:14.183Z,6.73
2023-05-07T06:13:41.008Z,7.03
2023-05-07T06:16:08.179Z,8.40
2023-05-07T06:18:37.203Z,8.20
2023-05-07T06:21:04.116Z,8.07
2023-05-07T06:23:31.208Z,7.80
2023-05-07T06:25:58.165Z,8.73
2023-05-07T06:28:25.179Z,8.03
2023-05-07T06:30:52.165Z,8.30
2023-05-07T06:33:19.092Z,8.60
2023-05-07T06:35:46.112Z,7.50
2023-05-07T06:38:13.535Z,7.20
2023-05-07T06:40:40.446Z,7.40
2023-05-07T06:43:07.292Z,6.97
2023-05-07T06:45:34.151Z,7.90
2023-05-07T06:48:01.048Z,8.00
2023-05-07T06:50:27.966Z,6.63
2023-05-07T06:52:54.852Z,7.30
2023-05-07T06:55:24.155Z,7.53
2023-05-07T06:57:51.305Z,6.73
2023-05-07T07:00:18.553Z,6.20
2023-05-07T07:02:45.835Z,6.37
2023-05-07T07:05:12.736Z,7.03
2023-05-07T07:07:39.611Z,6.27
2023-05-07T07:10:07.158Z,7.30
2023-05-07T07:12:34.005Z,6.73
2023-05-07T07:15:00.903Z,5.53
2023-05-07T07:17:27.787Z,5.57
2023-05-07T07:19:54.670Z,6.30
2023-05-07T07:22:21.447Z,5.23
2023-05-07T07:24:48.342Z,5.53
2023-05-07T07:27:15.144Z,5.50
2023-05-07T07:29:41.978Z,4.60
2023-05-07T07:32:09.117Z,4.80
2023-05-07T07:34:35.991Z,5.10
2023-05-07T07:37:06.477Z,5.40
2023-05-07T07:39:34.224Z,5.23
2023-05-07T07:42:01.357Z,5.23
2023-05-07T07:44:29.267Z,5.50
2023-05-07T07:46:56.665Z,5.57
2023-05-07T07:49:23.618Z,5.03
2023-05-07T07:51:50.470Z,4.50
2023-05-07T07:54:17.559Z,5.50
2023-05-07T07:56:44.438Z,5.20
2023-05-07T07:59:11.325Z,4.90
2023-05-07T08:01:38.240Z,4.60
2023-05-07T08:04:06.842Z,5.40
2023-05-07T08:06:33.784Z,5.70
2023-05-07T08:09:00.658Z,5.37
2023-05-07T08:11:27.795Z,5.83
2023-05-07T08:13:55.598Z,4.90
2023-05-07T08:16:24.111Z,5.40
2023-05-07T08:18:51.332Z,4.93
2023-05-07T08:21:18.420Z,5.10
2023-05-07T08:23:45.260Z,5.87
2023-05-07T08:26:12.480Z,5.00
2023-05-07T08:28:39.575Z,4.53
2023-05-07T08:31:06.627Z,4.00
2023-05-07T08:33:33.589Z,4.37
2023-05-07T08:36:00.437Z,5.30
2023-05-07T08:38:27.294Z,4.53
2023-05-07T08:40:54.427Z,4.60
2023-05-07T08:43:22.681Z,4.13
2023-05-07T08:45:53.904Z,3.90
2023-05-07T08:48:23.810Z,4.17
2023-05-07T08:50:51.070Z,4.10
2023-05-07T08:53:18.225Z,4.43
2023-05-07T08:55:46.049Z,4.53
2023-05-07T08:58:12.977Z,3.77
2023-05-07T09:00:41.741Z,5.97
2023-05-07T09:03:08.779Z,4.27
2023-05-07T09:05:35.849Z,5.63
2023-05-07T09:08:08.211Z,5.27
2023-05-07T09:10:35.755Z,4.20
2023-05-07T09:13:04.152Z,3.87
2023-05-07T09:15:31.115Z,4.03
2023-05-07T09:20:39.154Z,4.77
2023-05-07T09:23:08.039Z,3.87
2023-05-07T09:25:36.484Z,5.13
2023-05-07T09:28:05.140Z,5.13
2023-05-07T09:30:33.169Z,4.53
2023-05-07T09:33:01.116Z,4.50
2023-05-07T09:35:28.634Z,4.50
2023-05-07T09:37:57.346Z,4.30
2023-05-07T09:40:29.328Z,3.80
2023-05-07T09:42:56.263Z,3.77
2023-05-07T09:45:30.080Z,5.00
2023-05-07T09:47:58.664Z,4.33
2023-05-07T09:50:31.677Z,5.03
2023-05-07T09:52:58.745Z,4.93
2023-05-07T09:55:26.499Z,4.47
2023-05-07T09:57:54.958Z,4.50
2023-05-07T10:00:23.042Z,4.03
2023-05-07T10:02:53.608Z,4.43
2023-05-07T10:05:23.956Z,4.10
2023-05-07T10:07:52.202Z,4.30
2023-05-07T10:10:19.664Z,4.47
2023-05-07T10:12:46.598Z,4.80
2023-05-07T10:15:15.563Z,4.30
2023-05-07T10:17:42.627Z,4.53
2023-05-07T10:20:10.286Z,3.70
2023-05-07T10:22:46.621Z,3.97
2023-05-07T10:25:33.537Z,4.37
2023-05-07T10:28:08.983Z,4.67
2023-05-07T10:30:55.379Z,4.43
2023-05-07T10:33:26.882Z,3.73
2023-05-07T10:35:59.755Z,3.57
2023-05-07T10:38:28.033Z,3.37
2023-05-07T10:40:55.529Z,3.20
2023-05-07T10:43:22.639Z,2.80
2023-05-07T10:46:15.322Z,3.13
2023-05-07T10:49:04.509Z,3.83
2023-05-07T10:51:35.419Z,3.70
2023-05-07T10:54:11.686Z,3.20
2023-05-07T10:56:39.391Z,3.33
2023-05-07T10:59:33.346Z,7.43
2023-05-07T11:02:05.630Z,3.57
2023-05-07T11:04:36.030Z,3.50
2023-05-07T11:07:09.826Z,2.67
2023-05-07T11:09:54.882Z,2.00
2023-05-07T11:12:40.065Z,2.50
2023-05-07T11:15:09.189Z,2.53
2023-05-07T11:17:53.436Z,3.13
2023-05-07T11:20:20.756Z,2.60
2023-05-07T11:22:48.471Z,3.23
2023-05-07T11:25:22.254Z,2.50
2023-05-07T11:27:49.690Z,2.17
2023-05-07T11:30:20.057Z,3.00
2023-05-07T11:32:50.074Z,2.60
2023-05-07T11:35:17.825Z,2.90
2023-05-07T11:37:46.856Z,1.80
2023-05-07T11:40:15.205Z,1.90
2023-05-07T11:42:44.302Z,2.10
2023-05-07T11:45:11.978Z,2.27
2023-05-07T11:47:39.320Z,1.70
2023-05-07T11:50:08.888Z,2.53
2023-05-07T11:52:36.670Z,2.97
2023-05-07T11:55:05.583Z,2.80
2023-05-07T11:57:34.788Z,2.80
2023-05-07T12:00:04.943Z,2.57
2023-05-07T12:02:32.708Z,3.10
2023-05-07T12:05:02.108Z,2.13
2023-05-07T12:07:31.561Z,1.97
2023-05-07T12:09:58.477Z,2.27
2023-05-07T12:12:25.318Z,2.20
2023-05-07T12:14:53.224Z,1.77
2023-05-07T12:17:20.323Z,1.80
2023-05-07T12:19:48.074Z,1.60
2023-05-07T12:22:15.058Z,1.50
2023-05-07T12:24:49.393Z,1.47
2023-05-07T12:27:17.196Z,1.50
2023-05-07T12:29:48.302Z,1.70
2023-05-07T12:32:20.527Z,1.53
2023-05-07T12:34:48.085Z,1.73
2023-05-07T12:37:15.252Z,1.93
2023-05-07T12:40:05.451Z,1.80
2023-05-07T12:42:36.525Z,1.93
2023-05-07T12:45:14.660Z,1.70
2023-05-07T12:47:46.285Z,1.70
2023-05-07T12:50:15.296Z,1.53
2023-05-07T12:52:42.205Z,1.63
2023-05-07T12:55:10.087Z,1.90
2023-05-07T12:57:46.582Z,2.70
2023-05-07T13:00:14.116Z,2.40
2023-05-07T13:02:42.764Z,1.93
2023-05-07T13:05:10.322Z,1.37
2023-05-07T13:07:38.192Z,1.30
2023-05-07T13:10:05.771Z,2.20
2023-05-07T13:12:32.630Z,2.13
2023-05-07T13:15:00.398Z,2.13
2023-05-07T13:17:27.437Z,1.53
2023-05-07T13:19:54.438Z,1.70
2023-05-07T13:22:21.260Z,1.53
2023-05-07T13:24:48.286Z,1.77
2023-05-07T13:27:15.126Z,1.67
2023-05-07T13:29:41.973Z,1.93
2023-05-07T13:32:08.909Z,1.60
2023-05-07T13:34:35.812Z,1.23
2023-05-07T13:37:02.606Z,1.60
2023-05-07T13:39:29.472Z,1.40
2023-05-07T13:41:56.352Z,1.50
2023-05-07T13:44:23.277Z,1.63
2023-05-07T13:46:50.237Z,1.33
2023-05-07T13:49:17.183Z,1.60
2023-05-07T13:51:44.066Z,1.63
2023-05-07T13:54:10.908Z,1.60
2023-05-07T13:56:38.154Z,1.40
2023-05-07T13:59:05.037Z,1.30
2023-05-07T14:01:32.571Z,1.33
2023-05-07T14:04:00.709Z,1.57
2023-05-07T14:06:27.776Z,2.03
2023-05-07T14:08:54.670Z,2.30
2023-05-07T14:11:21.921Z,1.30
2023-05-07T14:13:48.747Z,1.47
2023-05-07T14:16:16.228Z,1.30
2023-05-07T14:18:43.110Z,1.10
2023-05-07T14:21:11.043Z,1.00
2023-05-07T14:23:37.875Z,2.67
2023-05-07T14:26:04.838Z,3.13
2023-05-07T14:28:32.222Z,3.30
2023-05-07T14:30:59.472Z,2.70
2023-05-07T14:33:26.400Z,2.30
2023-05-07T14:35:53.210Z,2.20
2023-05-07T14:38:20.071Z,1.87
2023-05-07T14:40:46.890Z,1.87
2023-05-07T14:43:13.697Z,2.00
2023-05-07T14:45:40.775Z,1.30
2023-05-07T14:48:07.665Z,1.37
2023-05-07T14:50:34.521Z,1.30
2023-05-07T14:53:01.383Z,8.73
2023-05-07T14:55:28.253Z,1.30
2023-05-07T14:57:55.112Z,2.10
2023-05-07T15:00:22.004Z,2.00
2023-05-07T15:02:48.871Z,1.33
2023-05-07T15:05:16.030Z,1.00
2023-05-07T15:07:42.884Z,1.77
2023-05-07T15:10:10.022Z,1.60
2023-05-07T15:12:36.932Z,1.30
2023-05-07T15:15:04.259Z,1.57
2023-05-07T15:17:31.141Z,1.57
2023-05-07T15:19:58.186Z,1.80
2023-05-07T15:22:25.046Z,1.30
2023-05-07T15:24:51.982Z,1.33
2023-05-07T15:27:18.898Z,2.10
2023-05-07T15:29:45.725Z,1.40
2023-05-07T15:32:13.023Z,1.60
2023-05-07T15:34:40.140Z,1.33
2023-05-07T15:37:06.952Z,1.77
2023-05-07T15:39:33.845Z,1.73
2023-05-07T15:42:00.872Z,1.73
2023-05-07T15:44:30.028Z,1.17
2023-05-07T15:46:57.115Z,1.17
2023-05-07T15:49:23.962Z,2.10
2023-05-07T15:51:51.977Z,2.33
2023-05-07T15:54:21.225Z,1.60
2023-05-07T15:56:48.627Z,1.20
2023-05-07T15:59:17.241Z,1.63
2023-05-07T16:01:45.831Z,1.33
2023-05-07T16:04:12.771Z,1.73
2023-05-07T16:06:39.641Z,1.87
2023-05-07T16:09:06.521Z,5.17
2023-05-07T16:11:34.195Z,2.10
2023-05-07T16:14:01.628Z,2.07
2023-05-07T16:16:30.300Z,1.70
2023-05-07T16:18:57.584Z,1.33
2023-05-07T16:21:24.424Z,1.60
2023-05-07T16:23:51.343Z,1.80
2023-05-07T16:26:18.298Z,1.80
2023-05-07T16:28:45.221Z,2.07
2023-05-07T16:31:12.165Z,1.87
2023-05-07T16:33:39.143Z,1.50
2023-05-07T16:36:07.680Z,1.67
2023-05-07T16:38:34.782Z,2.07
2023-05-07T16:41:01.925Z,1.60
2023-05-07T16:43:29.035Z,4.60
2023-05-07T16:45:55.931Z,2.60
2023-05-07T16:48:23.113Z,1.70
2023-05-07T16:50:50.187Z,2.00
2023-05-07T16:53:17.209Z,1.60
2023-05-07T16:55:44.054Z,1.97
2023-05-07T16:58:12.115Z,2.00
2023-05-07T17:00:50.019Z,2.33
2023-05-07T17:03:18.651Z,2.70
2023-05-07T17:05:45.834Z,2.53
2023-05-07T17:08:14.246Z,2.20
2023-05-07T17:10:42.232Z,2.30
2023-05-07T17:13:09.216Z,5.13
2023-05-07T17:15:36.147Z,5.90
2023-05-07T17:20:41.872Z,2.30
2023-05-07T17:23:08.860Z,2.80
2023-05-07T17:25:37.288Z,1.93
2023-05-07T17:28:04.246Z,2.27
2023-05-07T17:30:31.209Z,2.60
2023-05-07T17:33:06.283Z,2.40
2023-05-07T17:35:36.383Z,2.40
2023-05-07T17:38:03.652Z,2.30
2023-05-07T17:40:30.461Z,2.87
2023-05-07T17:42:59.431Z,2.50
2023-05-07T17:45:26.658Z,2.30
2023-05-07T17:47:53.584Z,2.10
2023-05-07T17:50:21.473Z,2.47
2023-05-07T17:52:48.885Z,2.20
2023-05-07T17:55:15.972Z,1.70
2023-05-07T17:57:42.873Z,2.17
2023-05-07T18:00:11.193Z,2.37
2023-05-07T18:02:38.556Z,2.30
2023-05-07T18:05:06.082Z,2.40
2023-05-07T18:07:32.948Z,2.50
2023-05-07T18:10:00.280Z,1.90
2023-05-07T18:12:27.886Z,2.60
2023-05-07T18:14:54.823Z,2.73
2023-05-07T18:17:24.561Z,3.10
2023-05-07T18:19:54.051Z,8.13
2023-05-07T18:22:22.597Z,2.90
2023-05-07T18:24:50.487Z,4.43
2023-05-07T18:27:17.902Z,3.23
2023-05-07T18:29:44.786Z,3.07
2023-05-07T18:32:12.184Z,2.80
2023-05-07T18:34:39.463Z,2.80
2023-05-07T18:37:06.402Z,3.70
2023-05-07T18:39:35.051Z,3.20
2023-05-07T18:42:01.974Z,3.60
2023-05-07T18:44:31.536Z,4.00
2023-05-07T18:46:58.437Z,3.90
2023-05-07T18:49:25.588Z,3.80
2023-05-07T18:51:53.399Z,3.43
2023-05-07T18:54:20.374Z,4.00
2023-05-07T18:56:47.200Z,3.40
2023-05-07T18:59:14.103Z,3.93
2023-05-07T19:01:41.040Z,3.57
2023-05-07T19:04:08.050Z,3.37
2023-05-07T19:06:35.049Z,3.37
2023-05-07T19:09:02.224Z,3.87
2023-05-07T19:11:29.117Z,3.70
2023-05-07T19:13:55.957Z,3.80
2023-05-07T19:16:22.837Z,3.50
2023-05-07T19:18:49.757Z,3.37
2023-05-07T19:21:16.640Z,4.57
2023-05-07T19:23:43.577Z,3.50
2023-05-07T19:26:11.259Z,3.83
2023-05-07T19:28:42.263Z,3.87
2023-05-07T19:31:22.849Z,3.73
2023-05-07T19:33:49.824Z,3.57
2023-05-07T19:36:17.469Z,3.30
2023-05-07T19:38:45.303Z,3.83
2023-05-07T19:41:12.577Z,3.80
2023-05-07T19:43:40.054Z,4.00
2023-05-07T19:46:07.018Z,5.37
2023-05-07T19:48:33.914Z,3.90
2023-05-07T19:51:00.887Z,4.10
2023-05-07T19:53:27.928Z,4.37
2023-05-07T19:56:05.990Z,4.20
2023-05-07T19:58:33.515Z,4.50
2023-05-07T20:01:01.714Z,4.70
2023-05-07T20:03:29.707Z,5.10
2023-05-07T20:05:56.749Z,5.00
2023-05-07T20:08:24.094Z,6.03
2023-05-07T20:10:51.801Z,5.40
2023-05-07T20:13:19.063Z,5.40
2023-05-07T20:15:46.390Z,5.83
2023-05-07T20:20:45.748Z,6.63
2023-05-07T20:23:12.673Z,6.57
2023-05-07T20:25:41.913Z,7.10
2023-05-07T20:28:08.928Z,6.80
2023-05-07T20:30:36.029Z,9.20
2023-05-07T20:33:04.198Z,7.93
2023-05-07T20:35:32.395Z,7.80
2023-05-07T20:37:59.357Z,7.63
2023-05-07T20:40:27.376Z,7.90
2023-05-07T20:42:54.339Z,8.70
2023-05-07T20:45:21.717Z,9.80
2023-05-07T20:47:48.654Z,9.53
2023-05-07T20:50:16.165Z,9.80
2023-05-07T20:52:43.198Z,9.77
2023-05-07T20:55:10.140Z,11.27
2023-05-07T20:57:36.958Z,9.37
2023-05-07T21:00:04.373Z,9.23
2023-05-07T21:02:31.343Z,9.00
2023-05-07T21:04:58.208Z,9.53
2023-05-07T21:07:25.109Z,9.60
2023-05-07T21:09:51.914Z,10.07
2023-05-07T21:12:18.745Z,10.27
2023-05-07T21:14:45.624Z,9.40
2023-05-07T21:17:12.480Z,21.23
2023-05-07T21:19:40.508Z,10.17
2023-05-07T21:22:07.384Z,11.23
2023-05-07T21:24:34.481Z,49.87
2023-05-07T21:27:01.601Z,16.47
2023-05-07T21:29:28.528Z,11.00
2023-05-07T21:31:55.431Z,13.50
2023-05-07T21:34:22.365Z,11.67
2023-05-07T21:36:49.305Z,13.37
2023-05-07T21:39:16.262Z,10.60
2023-05-07T21:41:44.469Z,11.03
2023-05-07T21:44:11.437Z,12.63
2023-05-07T21:46:38.339Z,11.73
2023-05-07T21:49:05.192Z,11.70
2023-05-07T21:51:34.706Z,11.40
2023-05-07T21:54:01.577Z,11.30
2023-05-07T21:56:28.471Z,11.33
2023-05-07T21:58:55.349Z,11.80
2023-05-07T22:01:22.200Z,12.13
2023-05-07T22:03:49.321Z,12.27
2023-05-07T22:06:21.720Z,12.00
2023-05-07T22:08:51.927Z,12.03
2023-05-07T22:11:18.851Z,12.57
2023-05-07T22:13:45.682Z,13.03
2023-05-07T22:16:15.886Z,13.60
2023-05-07T22:18:43.923Z,13.63
2023-05-07T22:21:10.784Z,12.90
2023-05-07T22:23:37.659Z,11.90
2023-05-07T22:26:11.516Z,13.20
2023-05-07T22:28:38.596Z,11.50
2023-05-07T22:31:05.493Z,11.97
2023-05-07T22:33:32.997Z,14.77
2023-05-07T22:35:59.938Z,14.50
2023-05-07T22:38:26.767Z,12.17
2023-05-07T22:40:53.710Z,13.10
2023-05-07T22:43:20.583Z,12.50
2023-05-07T22:45:47.442Z,13.13
2023-05-07T22:48:14.263Z,12.60
2023-05-07T22:50:41.508Z,12.40
2023-05-07T22:53:08.347Z,11.50
2023-05-07T22:55:35.387Z,13.73
2023-05-07T22:58:02.253Z,14.70
2023-05-07T23:00:29.238Z,14.00
2023-05-07T23:02:56.146Z,13.20
2023-05-07T23:05:23.110Z,13.90
2023-05-07T23:07:49.928Z,12.77
2023-05-07T23:10:16.815Z,13.30
2023-05-07T23:12:44.073Z,13.93
2023-05-07T23:15:11.585Z,13.50
2023-05-07T23:17:38.401Z,13.90
2023-05-07T23:20:05.791Z,15.07
2023-05-07T23:22:32.773Z,14.03
2023-05-07T23:24:59.704Z,13.60
2023-05-07T23:27:26.623Z,13.53
2023-05-07T23:29:53.487Z,14.07
2023-05-07T23:32:20.536Z,13.70
2023-05-07T23:34:51.432Z,15.30
2023-05-07T23:37:18.248Z,14.00
2023-05-07T23:39:45.312Z,13.97
2023-05-07T23:42:12.212Z,16.20
2023-05-07T23:44:39.275Z,15.23
2023-05-07T23:47:06.177Z,17.10
2023-05-07T23:49:32.989Z,15.60
2023-05-07T23:51:59.870Z,17.20
2023-05-07T23:54:26.708Z,18.87
2023-05-07T23:56:53.535Z,16.53
2023-05-07T23:59:20.383Z,17.37
